Bishop, Texas
Current Conditions -  °F | °C
As of 5:35 PM on Sunday 23 Nov 2014 (Local Time) from KRBO Reporting Station
Clear Clear  
Wind Chill: 24°   Ceiling: Unl
Heat Index: 24°   Visibility: 10mi
Dew Point: 16°   Wind: 5mph
Humidity: 62%   Direction: 240°WSW
Pressure: 29.62"   Gusts: NA
Location:  27.59°N, 97.8°W
Report Text: KRBO 232335Z AUTO 24004KT 10SM CLR 24/16 A2962 RMK AO2 T02390162
Loading
Personal Weather Stations






























Interactive Weather Map New forecast layout! Learn more

10-Day Weather Forecast

Advertisements
Track Severe Weather on mobile